Time;durP1;ratioP1;P1;durP2;ratioP2;P2;SDS_P1;SDS_P2;PMS_P1;PMS_P2;Temp;Humidity;BMP_temperature;BMP_pressure;BME280_temperature;BME280_humidity;BME280_pressure;Samples;Min_cycle;Max_cycle;Signal;HPM_P1;HPM_P2
2021/12/28 00:01:09;;;;;;;21.65;12.05;;;4.10;99.90;;;;;;4936319;29;20106;-82
2021/12/28 00:03:36;;;;;;;22.15;12.80;;;4.20;99.90;;;;;;4903695;29;20106;-82
2021/12/28 00:06:03;;;;;;;23.05;12.20;;;4.40;99.90;;;;;;4903410;29;20047;-81
2021/12/28 00:08:29;;;;;;;23.58;12.50;;;3.10;99.90;;;;;;4934689;29;20044;-82
2021/12/28 00:10:56;;;;;;;24.80;12.93;;;4.40;99.90;;;;;;4936280;29;20126;-82
2021/12/28 00:13:35;;;;;;;23.10;12.23;;;4.30;99.90;;;;;;4935482;29;20122;-82
2021/12/28 00:18:31;;;;;;;21.60;12.55;;;3.10;99.90;;;;;;4934655;29;20047;-82
2021/12/28 00:21:07;;;;;;;22.15;12.45;;;3.10;99.90;;;;;;4934556;29;20044;-83
2021/12/28 00:23:50;;;;;;;22.20;12.70;;;4.80;99.90;;;;;;4936200;29;20122;-82
2021/12/28 00:26:16;;;;;;;23.27;13.48;;;4.50;99.90;;;;;;4919185;29;20091;-82
2021/12/28 00:28:52;;;;;;;25.45;14.00;;;3.20;99.90;;;;;;4902930;29;20492;-83
2021/12/28 00:31:23;;;;;;;24.92;13.80;;;4.50;99.90;;;;;;4934511;29;20492;-82
2021/12/28 00:33:51;;;;;;;23.35;13.10;;;3.00;99.90;;;;;;4919120;29;20441;-82
2021/12/28 00:36:17;;;;;;;24.08;12.80;;;4.70;99.90;;;;;;4934686;29;20062;-82
2021/12/28 00:38:43;;;;;;;23.67;13.13;;;3.40;99.90;;;;;;4934376;29;20073;-82
2021/12/28 00:41:10;;;;;;;22.60;13.30;;;4.30;99.90;;;;;;4934470;29;20055;-83
2021/12/28 00:43:36;;;;;;;23.42;13.07;;;3.00;99.90;;;;;;4934607;29;20075;-82
2021/12/28 00:46:04;;;;;;;24.75;14.75;;;4.50;99.90;;;;;;4933854;29;20070;-82
2021/12/28 00:48:30;;;;;;;32.85;13.57;;;3.20;99.90;;;;;;4903468;29;20040;-82
2021/12/28 00:50:58;;;;;;;24.48;13.55;;;4.50;99.90;;;;;;4939515;29;20039;-82
2021/12/28 00:53:27;;;;;;;23.65;13.50;;;3.40;99.90;;;;;;4939419;29;20061;-82
2021/12/28 00:55:53;;;;;;;26.67;14.75;;;5.00;99.90;;;;;;4906548;29;20095;-82
2021/12/28 00:58:19;;;;;;;33.28;14.77;;;5.00;99.90;;;;;;4939315;29;20083;-82
2021/12/28 01:00:46;;;;;;;27.63;15.88;;;3.40;99.90;;;;;;4937852;29;20046;-82
2021/12/28 01:03:12;;;;;;;30.08;16.95;;;5.20;99.90;;;;;;4937726;29;20047;-82
2021/12/28 01:05:38;;;;;;;32.75;17.60;;;5.30;99.90;;;;;;4939317;29;20043;-81
2021/12/28 01:08:06;;;;;;;33.42;17.10;;;3.70;99.90;;;;;;4939121;29;20540;-82
2021/12/28 01:10:36;;;;;;;32.92;17.60;;;3.80;99.90;;;;;;4922180;29;20369;-81
2021/12/28 01:13:03;;;;;;;33.72;17.90;;;3.80;99.90;;;;;;4938754;29;20050;-82
2021/12/28 01:15:30;;;;;;;33.38;17.52;;;3.80;99.90;;;;;;4938695;29;20480;-82
2021/12/28 01:17:56;;;;;;;32.30;17.65;;;3.80;99.90;;;;;;4938420;29;20048;-82
2021/12/28 01:20:23;;;;;;;38.95;19.77;;;3.80;99.90;;;;;;4937459;29;20127;-81
2021/12/28 01:22:49;;;;;;;35.70;18.55;;;4.60;99.90;;;;;;4937203;29;20059;-81
2021/12/28 01:25:17;;;;;;;34.95;18.60;;;3.80;99.90;;;;;;4937312;29;20051;-82
2021/12/28 01:27:44;;;;;;;32.67;17.60;;;3.80;99.90;;;;;;4906048;29;20555;-81
2021/12/28 01:30:10;;;;;;;35.97;19.08;;;3.80;99.90;;;;;;4938797;29;20039;-81
2021/12/28 01:32:37;;;;;;;38.40;19.45;;;3.90;99.90;;;;;;4938336;29;20060;-83
2021/12/28 01:35:05;;;;;;;40.75;20.90;;;5.20;99.90;;;;;;4921416;29;20083;-79
2021/12/28 01:37:31;;;;;;;38.25;20.42;;;3.90;99.90;;;;;;4938511;29;20047;-81
2021/12/28 01:39:57;;;;;;;38.35;19.88;;;3.80;99.90;;;;;;4937225;29;20400;-81
2021/12/28 01:42:24;;;;;;;37.67;19.55;;;5.10;99.90;;;;;;4938617;29;20102;-79
2021/12/28 01:44:50;;;;;;;38.70;20.10;;;3.90;99.90;;;;;;4937103;29;20047;-82
2021/12/28 01:47:17;;;;;;;40.20;19.38;;;3.90;99.90;;;;;;4921158;29;20115;-81
2021/12/28 01:49:44;;;;;;;39.85;20.67;;;3.80;99.90;;;;;;4937955;29;20048;-81
2021/12/28 01:52:10;;;;;;;38.17;20.30;;;5.20;99.90;;;;;;4936938;29;20031;-79
2021/12/28 01:54:36;;;;;;;41.78;20.95;;;4.60;99.90;;;;;;4938099;29;20052;-81
2021/12/28 01:57:02;;;;;;;42.08;21.30;;;4.70;99.90;;;;;;4938208;29;20082;-81
2021/12/28 01:59:28;;;;;;;50.88;20.60;;;3.80;99.90;;;;;;4938169;29;20126;-80
2021/12/28 02:01:56;;;;;;;37.20;19.38;;;3.80;99.90;;;;;;4920612;29;20459;-81
2021/12/28 02:04:25;;;;;;;41.53;21.17;;;4.90;99.90;;;;;;4936344;29;20490;-81
2021/12/28 02:06:52;;;;;;;40.20;19.75;;;4.70;99.90;;;;;;4921101;29;20055;-82
2021/12/28 02:09:18;;;;;;;41.60;21.15;;;3.80;99.90;;;;;;4937756;29;20047;-80
2021/12/28 02:11:44;;;;;;;40.47;21.45;;;4.60;99.90;;;;;;4937982;29;20047;-81
2021/12/28 02:14:11;;;;;;;43.15;21.15;;;3.80;99.90;;;;;;4937743;29;20687;-80
2021/12/28 02:16:39;;;;;;;45.10;21.73;;;5.10;99.90;;;;;;4936326;29;20131;-79
2021/12/28 02:19:08;;;;;;;45.90;21.70;;;4.70;99.90;;;;;;4937841;29;20047;-82
2021/12/28 02:21:34;;;;;;;42.30;21.33;;;5.30;99.90;;;;;;4935913;29;20051;-81
2021/12/28 02:24:02;;;;;;;44.13;21.88;;;4.90;99.90;;;;;;4920804;29;20523;-81
2021/12/28 02:26:29;;;;;;;42.88;21.80;;;5.20;99.90;;;;;;4936372;29;20055;-81
2021/12/28 02:28:55;;;;;;;46.72;21.60;;;4.90;99.90;;;;;;4920970;29;20095;-83
2021/12/28 02:31:21;;;;;;;48.40;21.98;;;3.80;99.90;;;;;;4937737;29;20436;-83
2021/12/28 02:33:50;;;;;;;45.95;22.25;;;3.80;99.90;;;;;;4936047;29;20051;-83
2021/12/28 02:36:17;;;;;;;48.10;22.77;;;3.80;99.90;;;;;;4904146;29;20131;-82
2021/12/28 02:38:44;;;;;;;43.70;20.55;;;4.60;99.90;;;;;;4920006;29;20063;-83
2021/12/28 02:41:10;;;;;;;39.35;21.05;;;3.80;99.90;;;;;;4919716;29;20058;-84
2021/12/28 02:43:37;;;;;;;48.30;23.15;;;3.80;99.90;;;;;;4936084;29;20056;-80
2021/12/28 02:46:05;;;;;;;49.15;23.45;;;3.90;99.90;;;;;;4935556;29;20105;-83
2021/12/28 02:48:32;;;;;;;46.00;22.00;;;3.80;99.90;;;;;;4935823;29;20047;-81
2021/12/28 02:51:03;;;;;;;53.47;24.02;;;3.90;99.90;;;;;;4937376;29;20048;-84
2021/12/28 02:53:29;;;;;;;51.67;24.65;;;3.90;99.90;;;;;;4936557;29;20054;-82
2021/12/28 02:55:55;;;;;;;55.30;25.45;;;5.20;99.90;;;;;;4936918;29;20047;-83
2021/12/28 02:58:34;;;;;;;58.15;25.80;;;4.00;99.90;;;;;;4935559;29;20413;-84
2021/12/28 03:01:25;;;;;;;47.88;24.33;;;3.90;99.90;;;;;;4935564;29;20099;-85
2021/12/28 03:03:58;;;;;;;49.08;23.55;;;4.00;99.90;;;;;;4919863;29;20052;-85
2021/12/28 03:06:24;;;;;;;65.53;27.75;;;4.00;99.90;;;;;;4904061;29;20043;-81
2021/12/28 03:08:53;;;;;;;57.13;26.70;;;4.90;99.90;;;;;;4935212;29;20043;-82
2021/12/28 03:11:20;;;;;;;56.55;24.73;;;5.20;99.90;;;;;;4919765;29;20496;-82
2021/12/28 03:13:53;;;;;;;60.40;26.42;;;4.00;99.90;;;;;;4936069;29;20047;-82
2021/12/28 03:16:22;;;;;;;45.97;23.08;;;5.50;99.90;;;;;;4920054;29;20406;-81
2021/12/28 03:18:48;;;;;;;43.33;22.95;;;4.00;99.90;;;;;;4919990;29;20107;-79
2021/12/28 03:21:16;;;;;;;54.13;24.15;;;5.20;99.90;;;;;;4936833;29;20098;-82
2021/12/28 03:23:46;;;;;;;51.08;23.70;;;4.00;99.90;;;;;;4919387;29;20047;-80
2021/12/28 03:26:20;;;;;;;50.60;24.33;;;3.80;99.90;;;;;;4935241;29;20099;-81
2021/12/28 03:28:47;;;;;;;55.38;26.30;;;3.90;99.90;;;;;;4903735;29;20420;-81
2021/12/28 03:31:18;;;;;;;53.38;25.52;;;5.00;99.90;;;;;;4903657;29;20489;-81
2021/12/28 03:33:47;;;;;;;62.08;27.75;;;5.20;99.90;;;;;;4919337;29;20102;-81
2021/12/28 03:36:15;;;;;;;64.28;28.25;;;4.90;99.90;;;;;;4936699;29;20048;-81
2021/12/28 03:38:41;;;;;;;53.42;26.90;;;4.10;99.90;;;;;;4936513;29;20448;-82
2021/12/28 03:41:09;;;;;;;59.60;26.83;;;4.10;99.90;;;;;;4919008;29;20392;-83
2021/12/28 03:43:37;;;;;;;63.15;30.23;;;4.40;99.90;;;;;;4936461;29;20047;-76
2021/12/28 03:46:04;;;;;;;67.72;28.35;;;4.20;99.90;;;;;;4934683;29;20059;-82
2021/12/28 03:48:30;;;;;;;68.90;31.30;;;4.30;99.90;;;;;;4935030;29;20048;-81
2021/12/28 03:50:56;;;;;;;72.32;29.42;;;4.30;99.90;;;;;;4903866;29;20077;-81
2021/12/28 03:53:21;;;;;;;58.97;28.13;;;4.30;99.90;;;;;;4934920;29;20484;-82
2021/12/28 03:55:47;;;;;;;74.63;31.42;;;4.30;99.90;;;;;;4934847;29;20445;-82
2021/12/28 03:58:16;;;;;;;74.35;31.90;;;4.40;99.90;;;;;;4935827;29;20051;-81
2021/12/28 04:00:44;;;;;;;84.15;32.58;;;4.40;99.90;;;;;;4903524;29;20048;-77
2021/12/28 04:03:11;;;;;;;80.32;33.17;;;4.40;99.90;;;;;;4936018;29;20058;-82
2021/12/28 04:05:39;;;;;;;79.22;32.42;;;4.50;99.90;;;;;;4936324;29;20044;-81
2021/12/28 04:08:06;;;;;;;104.30;37.88;;;4.50;99.90;;;;;;4936200;29;20055;-82
2021/12/28 04:10:38;;;;;;;99.55;36.97;;;4.60;99.90;;;;;;4936099;29;20048;-81
2021/12/28 04:13:04;;;;;;;118.10;39.90;;;4.60;99.90;;;;;;4919932;29;20114;-81
2021/12/28 04:15:30;;;;;;;142.95;44.42;;;4.70;99.90;;;;;;4934881;29;20126;-82
2021/12/28 04:17:56;;;;;;;145.07;40.55;;;4.70;99.90;;;;;;4934847;29;20389;-82
2021/12/28 04:20:22;;;;;;;110.30;36.70;;;4.70;99.90;;;;;;4935988;29;20050;-82
2021/12/28 04:22:48;;;;;;;165.32;41.55;;;5.90;99.90;;;;;;4936234;29;20052;-82
2021/12/28 04:25:16;;;;;;;152.32;42.15;;;5.20;99.90;;;;;;4938840;29;20492;-81
2021/12/28 04:27:43;;;;;;;256.27;52.50;;;4.70;99.90;;;;;;4939621;29;20047;-82
2021/12/28 04:30:11;;;;;;;179.70;44.45;;;4.70;99.90;;;;;;4939619;29;20404;-82
2021/12/28 04:32:36;;;;;;;223.13;50.15;;;4.70;99.90;;;;;;4939842;29;20100;-81
2021/12/28 04:35:03;;;;;;;217.23;48.10;;;4.70;99.90;;;;;;4938317;29;20056;-82
2021/12/28 04:37:29;;;;;;;207.00;45.30;;;4.70;99.90;;;;;;4939401;29;20168;-81
2021/12/28 04:39:54;;;;;;;321.70;56.88;;;5.80;99.90;;;;;;4939655;29;20071;-83
2021/12/28 04:42:20;;;;;;;258.85;46.03;;;6.00;99.90;;;;;;4939436;29;20128;-82
2021/12/28 04:44:49;;;;;;;310.17;47.53;;;4.70;99.90;;;;;;4938013;29;20102;-80
2021/12/28 04:47:16;;;;;;;211.65;42.10;;;5.30;99.90;;;;;;4918843;29;20063;-82
2021/12/28 04:49:42;;;;;;;344.30;55.90;;;5.90;99.90;;;;;;4937910;29;20143;-80
2021/12/28 04:52:08;;;;;;;300.08;48.13;;;4.60;99.90;;;;;;4939504;29;20047;-82
2021/12/28 04:54:36;;;;;;;318.42;54.70;;;4.50;99.90;;;;;;4939193;29;20054;-82
2021/12/28 04:57:03;;;;;;;217.93;46.28;;;5.60;99.90;;;;;;4939475;29;20051;-82
2021/12/28 04:59:28;;;;;;;129.75;31.10;;;4.50;99.90;;;;;;4937422;29;20116;-81
2021/12/28 05:01:54;;;;;;;244.95;38.72;;;5.60;99.90;;;;;;4921918;29;20146;-81
2021/12/28 05:04:19;;;;;;;183.55;34.72;;;5.10;99.90;;;;;;4937810;29;20086;-82
2021/12/28 05:06:45;;;;;;;213.20;37.35;;;4.40;99.90;;;;;;4937768;29;20130;-84
2021/12/28 05:09:24;;;;;;;202.48;35.03;;;4.40;99.90;;;;;;4937900;29;20048;-82
2021/12/28 05:11:53;;;;;;;236.93;39.10;;;4.40;99.90;;;;;;4938065;29;20055;-81
2021/12/28 05:14:23;;;;;;;216.77;35.92;;;5.50;99.90;;;;;;4937794;29;20047;-83
2021/12/28 05:16:58;;;;;;;162.02;33.53;;;5.20;99.90;;;;;;4938793;29;20448;-81
2021/12/28 05:19:24;;;;;;;142.73;28.55;;;5.70;99.90;;;;;;4938857;29;20491;-80
2021/12/28 05:21:50;;;;;;;159.95;31.60;;;;;;;;;;4938806;29;20047;-82
2021/12/28 05:24:16;;;;;;;161.32;30.65;;;4.30;99.90;;;;;;4937476;29;20519;-84
2021/12/28 05:26:41;;;;;;;113.00;27.48;;;4.30;99.90;;;;;;4939168;29;20040;-87
2021/12/28 05:29:07;;;;;;;200.95;36.13;;;4.30;99.90;;;;;;4937663;29;20563;-85
2021/12/28 05:31:33;;;;;;;233.73;35.80;;;4.30;99.90;;;;;;4936868;29;20054;-84
2021/12/28 05:33:59;;;;;;;163.27;29.95;;;4.30;99.90;;;;;;4938850;29;20046;-84
2021/12/28 05:36:26;;;;;;;132.73;28.60;;;4.30;99.90;;;;;;4937691;29;20519;-85
2021/12/28 05:38:51;;;;;;;207.45;34.65;;;5.70;99.90;;;;;;4937154;29;20052;-83
2021/12/28 05:41:17;;;;;;;186.55;33.08;;;4.30;99.90;;;;;;4938645;29;20054;-82
2021/12/28 05:43:43;;;;;;;136.27;29.08;;;5.70;99.90;;;;;;4921352;29;20043;-84
2021/12/28 05:46:09;;;;;;;197.80;30.80;;;5.50;99.90;;;;;;4938673;29;20065;-83
2021/12/28 05:48:35;;;;;;;154.25;31.00;;;4.30;99.90;;;;;;4936456;29;20080;-84
2021/12/28 05:51:00;;;;;;;142.07;30.60;;;5.80;99.90;;;;;;4937258;29;20428;-84
2021/12/28 05:53:41;;;;;;;127.22;28.73;;;5.40;99.90;;;;;;4905620;29;20059;-82
2021/12/28 05:56:07;;;;;;;135.63;29.52;;;5.40;99.90;;;;;;4937002;29;20048;-81
2021/12/28 05:58:33;;;;;;;83.07;25.83;;;4.40;99.90;;;;;;4938359;29;20139;-82
2021/12/28 06:00:59;;;;;;;141.10;28.60;;;5.50;99.90;;;;;;4936868;29;20138;-82
2021/12/28 06:03:34;;;;;;;147.10;31.73;;;4.40;99.90;;;;;;4937867;29;20054;-81
2021/12/28 06:06:02;;;;;;;141.10;32.70;;;4.30;99.90;;;;;;4936726;29;20079;-82
2021/12/28 06:08:28;;;;;;;106.38;27.55;;;4.60;99.90;;;;;;4936958;29;20142;-83
2021/12/28 06:11:05;;;;;;;92.28;28.15;;;5.60;99.90;;;;;;4905642;29;20179;-81
2021/12/28 06:13:37;;;;;;;75.28;25.75;;;5.60;99.90;;;;;;4936567;29;20054;-82
2021/12/28 06:16:04;;;;;;;75.65;28.02;;;4.50;99.90;;;;;;4905193;29;20040;-82
2021/12/28 06:18:32;;;;;;;68.53;26.50;;;4.60;99.90;;;;;;4937674;29;20059;-82
2021/12/28 06:21:01;;;;;;;72.38;27.00;;;4.60;99.90;;;;;;4904891;29;20051;-82
2021/12/28 06:23:39;;;;;;;73.10;24.98;;;5.20;99.90;;;;;;4938030;29;20050;-81
2021/12/28 06:26:04;;;;;;;79.45;26.35;;;5.90;99.90;;;;;;4938254;29;20055;-82
2021/12/28 06:28:30;;;;;;;76.70;24.65;;;6.00;99.90;;;;;;4936488;29;20044;-82
2021/12/28 06:31:02;;;;;;;62.92;23.83;;;5.40;99.90;;;;;;4905724;29;20138;-84
2021/12/28 06:33:36;;;;;;;58.53;22.70;;;4.30;99.90;;;;;;4937831;29;20456;-81
2021/12/28 06:36:10;;;;;;;55.47;22.63;;;5.10;99.90;;;;;;4937280;29;20429;-83
2021/12/28 06:38:42;;;;;;;55.65;21.58;;;5.40;99.90;;;;;;4936217;29;20054;-83
2021/12/28 06:41:08;;;;;;;51.90;21.92;;;5.60;99.90;;;;;;4937767;29;20425;-83
2021/12/28 06:43:40;;;;;;;48.85;20.25;;;5.70;99.90;;;;;;4936257;29;20501;-83
2021/12/28 06:46:09;;;;;;;44.67;18.85;;;5.80;99.90;;;;;;4937554;29;20047;-81
2021/12/28 06:48:41;;;;;;;46.70;19.33;;;4.60;99.90;;;;;;4903950;29;20483;-83
2021/12/28 06:51:18;;;;;;;41.97;17.85;;;6.10;99.90;;;;;;4920210;29;20060;-83
2021/12/28 06:53:47;;;;;;;39.47;17.38;;;6.00;99.90;;;;;;4936099;29;20496;-82
2021/12/28 06:56:25;;;;;;;38.47;17.60;;;5.90;99.90;;;;;;4936200;29;20086;-81
2021/12/28 06:58:54;;;;;;;37.25;16.77;;;5.20;99.90;;;;;;4904469;29;20059;-82
2021/12/28 07:01:25;;;;;;;33.33;16.17;;;5.60;99.90;;;;;;4937211;29;20127;-82
2021/12/28 07:03:51;;;;;;;36.40;15.88;;;5.40;99.90;;;;;;4935719;29;20087;-83
2021/12/28 07:06:23;;;;;;;32.83;15.20;;;4.60;99.90;;;;;;4935341;29;20440;-83
2021/12/28 07:08:49;;;;;;;33.87;15.97;;;5.90;99.90;;;;;;4935468;29;20090;-82
2021/12/28 07:11:18;;;;;;;34.17;14.98;;;4.50;99.90;;;;;;4935913;29;20296;-83
2021/12/28 07:13:50;;;;;;;33.15;15.30;;;5.10;99.90;;;;;;4935405;29;20066;-83
2021/12/28 07:16:15;;;;;;;29.15;14.20;;;5.80;99.90;;;;;;4935873;29;20048;-82
2021/12/28 07:18:50;;;;;;;32.50;14.57;;;5.70;99.90;;;;;;4935313;29;20043;-83
2021/12/28 07:21:33;;;;;;;38.88;14.23;;;6.00;99.90;;;;;;4936792;29;20039;-82
2021/12/28 07:23:59;;;;;;;25.73;13.13;;;5.90;99.90;;;;;;4918924;29;20135;-81
2021/12/28 07:26:37;;;;;;;27.35;12.80;;;5.90;99.90;;;;;;4936779;29;20126;-82
2021/12/28 07:29:06;;;;;;;29.30;12.80;;;5.60;99.90;;;;;;4935230;29;20107;-82
2021/12/28 07:31:41;;;;;;;20.58;7.97;;;5.90;99.90;;;;;;4903891;29;20039;-82
2021/12/28 07:34:07;;;;;;;19.92;8.15;;;4.80;99.90;;;;;;4936343;29;20047;-82
2021/12/28 07:36:33;;;;;;;22.85;8.60;;;;;;;;;;4935607;29;20049;-83
2021/12/28 07:39:08;;;;;;;21.52;8.02;;;4.90;99.90;;;;;;4934897;29;20104;-81
2021/12/28 07:41:33;;;;;;;20.23;7.50;;;5.20;99.90;;;;;;4936335;29;20078;-82
2021/12/28 07:44:10;;;;;;;18.23;7.30;;;6.10;99.90;;;;;;4919164;29;20496;-83
2021/12/28 07:46:47;;;;;;;20.58;7.63;;;4.80;99.90;;;;;;4918725;29;20059;-82
2021/12/28 07:49:13;;;;;;;21.17;7.80;;;5.60;99.90;;;;;;4936091;29;20056;-82
2021/12/28 07:51:51;;;;;;;16.58;6.30;;;6.30;99.90;;;;;;4935197;29;20059;-81
2021/12/28 07:54:23;;;;;;;22.73;7.78;;;4.90;99.90;;;;;;4918739;29;20099;-81
2021/12/28 07:56:58;;;;;;;17.98;7.13;;;6.10;99.90;;;;;;4903240;29;20488;-82
2021/12/28 07:59:29;;;;;;;15.57;6.47;;;5.90;99.90;;;;;;4918486;29;20516;-82
2021/12/28 08:02:04;;;;;;;19.38;7.60;;;6.60;99.90;;;;;;4936271;29;20047;-82
2021/12/28 08:04:38;;;;;;;18.13;7.15;;;6.50;99.90;;;;;;4936241;29;20039;-82
2021/12/28 08:07:04;;;;;;;18.60;6.57;;;6.50;99.90;;;;;;4918924;29;20058;-83
2021/12/28 08:09:36;;;;;;;18.15;6.60;;;6.30;99.90;;;;;;4934639;29;20048;-82
2021/12/28 08:12:05;;;;;;;18.27;6.32;;;5.60;99.90;;;;;;4918936;29;20054;-82
2021/12/28 08:14:36;;;;;;;14.73;5.88;;;5.20;99.90;;;;;;4935599;29;20090;-82
2021/12/28 08:17:02;;;;;;;16.48;6.25;;;6.20;99.90;;;;;;4936094;29;20048;-84
2021/12/28 08:19:31;;;;;;;23.45;6.93;;;5.20;99.90;;;;;;4935041;29;20396;-82
2021/12/28 08:22:00;;;;;;;18.65;6.22;;;6.60;99.90;;;;;;4919171;29;20048;-82
2021/12/28 08:24:38;;;;;;;22.52;5.90;;;5.20;99.90;;;;;;4918960;29;20050;-82
2021/12/28 08:27:11;;;;;;;18.15;5.47;;;6.20;99.90;;;;;;4935334;29;20099;-81
2021/12/28 08:29:46;;;;;;;16.02;5.55;;;5.20;99.90;;;;;;4934677;29;20051;-82
2021/12/28 08:32:12;;;;;;;24.92;5.55;;;6.70;99.90;;;;;;4918902;29;20098;-84
2021/12/28 08:34:50;;;;;;;16.23;5.85;;;6.40;99.90;;;;;;4936031;29;20047;-83
2021/12/28 08:37:20;;;;;;;15.38;5.43;;;5.10;99.90;;;;;;4934577;29;20579;-82
2021/12/28 08:39:46;;;;;;;19.10;5.15;;;6.80;99.90;;;;;;4935829;29;20044;-82
2021/12/28 08:42:15;;;;;;;13.93;4.93;;;6.60;99.90;;;;;;4918354;29;20132;-82
2021/12/28 08:44:41;;;;;;;18.92;5.47;;;6.70;99.90;;;;;;4934692;29;20048;-83
2021/12/28 08:47:50;;;;;;;21.42;5.95;;;5.40;99.90;;;;;;4935547;29;20403;-82
2021/12/28 08:50:18;;;;;;;21.25;5.18;;;4.60;99.90;;;;;;4902563;29;20044;-83
2021/12/28 08:52:44;;;;;;;16.00;5.07;;;6.20;99.90;;;;;;4934394;29;20051;-82
2021/12/28 08:55:25;;;;;;;14.60;4.43;;;5.50;99.90;;;;;;4918793;29;20500;-80
2021/12/28 08:58:06;;;;;;;17.30;4.00;;;6.80;99.90;;;;;;4935454;29;20060;-82
2021/12/28 09:00:34;;;;;;;19.02;4.90;;;5.70;99.90;;;;;;4918430;29;20043;-82
2021/12/28 09:03:00;;;;;;;16.92;3.92;;;6.80;99.90;;;;;;4934257;29;20059;-82
2021/12/28 09:05:48;;;;;;;14.32;4.85;;;7.30;99.90;;;;;;4934658;29;20396;-82
2021/12/28 09:08:17;;;;;;;14.60;3.90;;;5.20;99.90;;;;;;4918719;29;20095;-82
2021/12/28 09:10:55;;;;;;;13.90;3.97;;;6.90;99.90;;;;;;4920309;29;20500;-82
2021/12/28 09:13:27;;;;;;;12.38;4.53;;;6.70;99.90;;;;;;4922179;29;20095;-83
2021/12/28 09:15:53;;;;;;;16.73;4.07;;;5.90;99.90;;;;;;4938794;29;20403;-82
2021/12/28 09:18:28;;;;;;;16.48;4.20;;;5.70;99.90;;;;;;4921621;29;20048;-82
2021/12/28 09:20:56;;;;;;;14.20;4.05;;;7.50;99.90;;;;;;4905833;29;20051;-82
2021/12/28 09:23:22;;;;;;;11.82;4.32;;;7.40;99.90;;;;;;4922165;29;20040;-82
2021/12/28 09:25:50;;;;;;;20.33;4.45;;;7.30;99.90;;;;;;4938233;29;20054;-83
2021/12/28 09:28:20;;;;;;;10.75;3.83;;;5.90;99.90;;;;;;4938948;29;20552;-82
2021/12/28 09:30:59;;;;;;;17.55;4.30;;;6.00;99.90;;;;;;4921368;29;20039;-83
2021/12/28 09:33:33;;;;;;;14.98;4.57;;;6.10;99.90;;;;;;4938866;29;20059;-83
2021/12/28 09:36:05;;;;;;;12.57;4.43;;;6.10;99.90;;;;;;4938788;29;20036;-83
2021/12/28 09:38:31;;;;;;;15.47;4.67;;;6.10;99.90;;;;;;4937584;29;20047;-82
2021/12/28 09:41:03;;;;;;;14.02;4.07;;;6.10;99.90;;;;;;4937183;29;20295;-82
2021/12/28 09:43:29;;;;;;;16.10;3.95;;;6.20;99.90;;;;;;4921335;29;20135;-83
2021/12/28 09:45:54;;;;;;;19.02;4.68;;;6.70;99.90;;;;;;4938248;29;20130;-83
2021/12/28 09:48:20;;;;;;;13.23;3.60;;;7.00;99.90;;;;;;4920634;29;20115;-83
2021/12/28 09:50:56;;;;;;;13.73;3.72;;;7.80;99.90;;;;;;4921220;29;20052;-83
2021/12/28 09:53:38;;;;;;;16.40;4.93;;;6.30;99.90;;;;;;4921431;29;20392;-83
2021/12/28 09:56:05;;;;;;;17.15;4.47;;;7.80;99.90;;;;;;4921081;29;20043;-82
2021/12/28 09:58:37;;;;;;;16.85;3.80;;;6.40;99.90;;;;;;4905454;29;20047;-84
2021/12/28 10:01:08;;;;;;;14.55;4.13;;;6.40;99.90;;;;;;4936683;29;20082;-83
2021/12/28 10:03:49;;;;;;;13.57;3.78;;;5.70;99.90;;;;;;4936584;29;20059;-82
2021/12/28 10:06:33;;;;;;;13.18;4.63;;;6.40;99.90;;;;;;4905148;29;20090;-83
2021/12/28 10:09:32;;;;;;;15.98;3.83;;;7.70;99.90;;;;;;4936613;29;20047;-83
2021/12/28 10:12:01;;;;;;;16.27;4.30;;;6.60;99.90;;;;;;4936528;29;20055;-83
2021/12/28 10:14:30;;;;;;;18.63;4.00;;;6.60;99.90;;;;;;4920675;29;20485;-83
2021/12/28 10:17:06;;;;;;;12.90;3.78;;;7.30;99.90;;;;;;4936329;29;20043;-85
2021/12/28 10:19:40;;;;;;;10.18;3.97;;;6.70;99.90;;;;;;4936306;29;20051;-84
2021/12/28 10:22:27;;;;;;;13.50;3.70;;;7.70;99.90;;;;;;4937401;29;20460;-84
2021/12/28 10:25:14;;;;;;;18.25;4.18;;;6.70;99.90;;;;;;4936497;29;20571;-83
2021/12/28 10:28:07;;;;;;;22.15;5.55;;;6.70;99.90;;;;;;4921110;29;20056;-84
2021/12/28 10:30:42;;;;;;;11.83;4.13;;;6.60;99.90;;;;;;4937702;29;20056;-83
2021/12/28 10:33:28;;;;;;;14.95;4.35;;;6.40;99.90;;;;;;4936183;29;20044;-84
2021/12/28 10:36:10;;;;;;;22.20;9.68;;;6.60;99.90;;;;;;4936376;29;20563;-83
2021/12/28 10:38:38;;;;;;;;;;;6.60;99.90;;;;;;4936324;29;20048;-83
2021/12/28 10:41:30;;;;;;;22.83;10.30;;;6.80;99.90;;;;;;4936462;29;19934;-83
2021/12/28 10:44:03;;;;;;;17.10;5.33;;;6.60;99.90;;;;;;4936384;29;20048;-83
2021/12/28 10:46:38;;;;;;;13.68;5.55;;;6.60;99.90;;;;;;4937516;29;20043;-83
2021/12/28 10:49:05;;;;;;;16.13;5.28;;;8.00;99.90;;;;;;4926744;29;20060;-84
2021/12/28 10:51:42;;;;;;;21.35;4.47;;;7.00;99.90;;;;;;4934061;29;20054;-84
2021/12/28 10:54:24;;;;;;;12.05;5.00;;;8.00;99.90;;;;;;4920321;29;20048;-84
2021/12/28 10:56:54;;;;;;;;;;;8.00;99.90;;;;;;4937533;29;20433;-83
2021/12/28 10:59:25;;;;;;;13.55;4.75;;;6.70;99.90;;;;;;4937210;29;20301;-83
2021/12/28 11:02:06;;;;;;;17.90;5.47;;;7.80;99.90;;;;;;4904195;29;20058;-84
2021/12/28 11:04:47;;;;;;;17.00;4.40;;;8.20;99.90;;;;;;4921115;29;20098;-84
2021/12/28 11:07:24;;;;;;;12.30;4.45;;;7.60;99.90;;;;;;4919784;29;20519;-83
2021/12/28 11:09:50;;;;;;;20.10;6.68;;;7.50;99.90;;;;;;4937046;29;20047;-84
2021/12/28 11:12:16;;;;;;;13.88;5.43;;;8.00;99.90;;;;;;4935804;29;20048;-83
2021/12/28 11:14:45;;;;;;;17.48;7.35;;;6.70;99.90;;;;;;4935904;29;20107;-84
2021/12/28 11:17:31;;;;;;;15.90;6.65;;;6.80;99.90;;;;;;4919822;29;20045;-84
2021/12/28 11:19:59;;;;;;;14.07;6.07;;;6.80;99.90;;;;;;4919764;29;20111;-84
2021/12/28 11:22:34;;;;;;;16.88;4.53;;;7.60;99.90;;;;;;4903301;29;20056;-84
2021/12/28 11:25:00;;;;;;;15.75;4.63;;;6.80;99.90;;;;;;4919766;29;20036;-85
2021/12/28 11:27:44;;;;;;;14.52;4.85;;;8.30;99.90;;;;;;4919464;29;20054;-82
2021/12/28 11:30:17;;;;;;;15.13;4.22;;;8.10;99.90;;;;;;4936412;29;20035;-83
2021/12/28 11:33:15;;;;;;;11.82;3.70;;;6.80;99.90;;;;;;4919421;29;20408;-82
2021/12/28 11:35:40;;;;;;;14.38;4.13;;;7.60;99.90;;;;;;4919423;29;20044;-86
2021/12/28 11:38:07;;;;;;;16.75;4.78;;;6.80;99.90;;;;;;4918828;29;20043;-83
2021/12/28 11:40:35;;;;;;;11.23;4.45;;;7.30;99.90;;;;;;4936099;29;20059;-82
2021/12/28 11:43:01;;;;;;;15.48;5.30;;;6.80;99.90;;;;;;4904103;29;20083;-85
2021/12/28 11:45:27;;;;;;;14.90;5.80;;;6.80;99.90;;;;;;4919365;29;20472;-82
2021/12/28 11:48:06;;;;;;;20.45;7.18;;;6.90;99.90;;;;;;4934808;29;20051;-83
2021/12/28 11:50:41;;;;;;;19.08;6.15;;;8.30;99.90;;;;;;4919265;29;20461;-82
2021/12/28 11:53:11;;;;;;;20.15;5.57;;;6.90;99.90;;;;;;4934139;29;20471;-82
2021/12/28 11:55:40;;;;;;;16.63;4.43;;;6.90;99.90;;;;;;4919430;29;20046;-82
2021/12/28 11:58:06;;;;;;;12.63;4.65;;;8.10;99.90;;;;;;4936327;29;20051;-83
2021/12/28 12:00:40;;;;;;;20.73;5.55;;;7.00;99.90;;;;;;4936262;29;20043;-84
2021/12/28 12:03:09;;;;;;;13.13;5.10;;;7.80;99.90;;;;;;4919012;29;20086;-83
2021/12/28 12:05:43;;;;;;;19.13;4.28;;;7.00;99.90;;;;;;4919182;29;20392;-83
2021/12/28 12:08:12;;;;;;;17.50;4.47;;;7.00;99.90;;;;;;4902908;29;20092;-81
2021/12/28 12:10:44;;;;;;;12.63;4.32;;;8.30;99.90;;;;;;4902834;29;20090;-84
2021/12/28 12:13:14;;;;;;;14.13;4.40;;;6.60;99.90;;;;;;4903369;29;20404;-83
2021/12/28 12:15:43;;;;;;;12.05;4.10;;;7.40;99.90;;;;;;4918873;29;20131;-82
2021/12/28 12:18:12;;;;;;;18.65;4.53;;;7.00;99.90;;;;;;4918663;29;20077;-83
2021/12/28 12:20:44;;;;;;;16.58;7.97;;;8.00;99.90;;;;;;4934613;29;20055;-83
2021/12/28 12:23:14;;;;;;;12.85;4.45;;;7.90;99.90;;;;;;4918764;29;20066;-83
2021/12/28 12:26:05;;;;;;;16.85;5.60;;;6.90;99.90;;;;;;4918511;29;20055;-82
2021/12/28 12:28:47;;;;;;;15.73;5.28;;;6.90;99.90;;;;;;4934568;29;20050;-83
2021/12/28 12:31:37;;;;;;;19.52;4.75;;;6.90;99.90;;;;;;4903120;29;20044;-83
2021/12/28 12:34:24;;;;;;;15.68;4.75;;;6.90;99.90;;;;;;4934546;29;20048;-83
2021/12/28 12:36:51;;;;;;;13.48;4.95;;;7.70;99.90;;;;;;4918574;29;20087;-84
2021/12/28 12:39:21;;;;;;;17.27;4.80;;;6.80;99.90;;;;;;4918625;29;20106;-84
2021/12/28 12:41:50;;;;;;;19.00;5.65;;;7.90;99.90;;;;;;4918477;29;20134;-84
2021/12/28 12:44:24;;;;;;;13.32;5.15;;;8.30;99.90;;;;;;4935961;29;20079;-84
2021/12/28 12:46:52;;;;;;;15.80;5.10;;;8.20;99.90;;;;;;4938462;29;20058;-83
2021/12/28 12:49:21;;;;;;;15.68;4.55;;;8.50;99.90;;;;;;4937833;29;20060;-83
2021/12/28 12:51:56;;;;;;;14.45;4.95;;;7.00;99.90;;;;;;4939366;29;20130;-83
2021/12/28 12:54:31;;;;;;;16.15;5.13;;;6.90;99.90;;;;;;4939454;29;20052;-83
2021/12/28 12:57:01;;;;;;;14.32;4.28;;;6.90;99.90;;;;;;4921923;29;20130;-83
2021/12/28 12:59:42;;;;;;;17.42;5.03;;;8.00;99.90;;;;;;4939432;29;20079;-83